createdAt,value
2019-03-18T00:00:58.826Z,4.00
2019-03-18T00:04:02.288Z,4.00
2019-03-18T00:07:05.738Z,4.00
2019-03-18T00:10:09.349Z,3.90
2019-03-18T00:13:12.809Z,3.90
2019-03-18T00:16:16.243Z,3.90
2019-03-18T00:19:19.706Z,3.90
2019-03-18T00:22:23.161Z,3.90
2019-03-18T00:25:26.693Z,3.90
2019-03-18T00:28:30.126Z,4.00
2019-03-18T00:31:33.597Z,3.90
2019-03-18T00:34:37.038Z,3.90
2019-03-18T00:37:40.489Z,3.80
2019-03-18T00:40:43.930Z,3.80
2019-03-18T00:43:47.386Z,3.70
2019-03-18T00:46:50.818Z,3.70
2019-03-18T00:49:54.298Z,3.70
2019-03-18T00:52:57.728Z,3.70
2019-03-18T00:56:01.189Z,3.70
2019-03-18T00:59:04.744Z,3.70
2019-03-18T01:02:08.197Z,3.80
2019-03-18T01:05:11.921Z,3.80
2019-03-18T01:08:15.393Z,3.80
2019-03-18T01:11:18.827Z,3.70
2019-03-18T01:14:22.295Z,3.60
2019-03-18T01:17:25.798Z,3.50
2019-03-18T01:20:29.269Z,3.40
2019-03-18T01:23:32.726Z,3.30
2019-03-18T01:26:36.186Z,3.30
2019-03-18T01:29:39.665Z,3.30
2019-03-18T01:32:43.098Z,3.20
2019-03-18T01:35:46.558Z,3.20
2019-03-18T01:38:49.990Z,3.10
2019-03-18T01:41:53.477Z,3.00
2019-03-18T01:44:56.910Z,3.00
2019-03-18T01:48:00.395Z,3.00
2019-03-18T01:51:03.829Z,3.00
2019-03-18T01:54:07.301Z,3.10
2019-03-18T01:57:10.766Z,3.00
2019-03-18T02:00:15.146Z,3.00
2019-03-18T02:03:18.599Z,3.00
2019-03-18T02:06:22.066Z,3.10
2019-03-18T02:09:25.498Z,3.00
2019-03-18T02:12:28.975Z,3.00
2019-03-18T02:15:32.410Z,3.00
2019-03-18T02:18:35.880Z,3.00
2019-03-18T02:21:39.437Z,2.90
2019-03-18T02:24:42.955Z,2.90
2019-03-18T02:27:46.429Z,2.90
2019-03-18T02:30:49.892Z,2.80
2019-03-18T02:33:53.433Z,2.80
2019-03-18T02:36:56.870Z,2.70
2019-03-18T02:40:00.496Z,2.70
2019-03-18T02:43:04.145Z,2.60
2019-03-18T02:46:10.360Z,2.50
2019-03-18T02:49:12.763Z,2.40
2019-03-18T02:52:16.246Z,2.30
2019-03-18T02:55:19.707Z,2.30
2019-03-18T02:58:23.229Z,2.40
2019-03-18T03:01:26.666Z,2.40
2019-03-18T03:04:30.114Z,2.60
2019-03-18T03:07:33.578Z,2.70
2019-03-18T03:10:37.038Z,2.80
2019-03-18T03:13:40.514Z,2.80
2019-03-18T03:16:43.986Z,3.00
2019-03-18T03:19:47.507Z,3.10
2019-03-18T03:22:51.074Z,3.00
2019-03-18T03:25:54.503Z,3.00
2019-03-18T03:28:57.958Z,3.00
2019-03-18T03:32:01.464Z,2.90
2019-03-18T03:35:06.508Z,2.90
2019-03-18T03:38:10.059Z,2.80
2019-03-18T03:41:17.532Z,2.80
2019-03-18T03:44:18.666Z,2.80
2019-03-18T03:47:22.119Z,2.70
2019-03-18T03:50:25.570Z,2.70
2019-03-18T03:53:30.855Z,2.70
2019-03-18T03:56:34.360Z,2.80
2019-03-18T03:59:38.153Z,2.80
2019-03-18T04:02:42.072Z,2.80
2019-03-18T04:05:45.572Z,2.70
2019-03-18T04:08:49.176Z,2.70
2019-03-18T04:11:52.722Z,2.60
2019-03-18T04:14:56.240Z,2.60
2019-03-18T04:17:59.768Z,2.60
2019-03-18T04:21:03.227Z,2.60
2019-03-18T04:24:06.779Z,2.70
2019-03-18T04:27:10.306Z,2.70
2019-03-18T04:30:16.714Z,2.70
2019-03-18T04:33:20.150Z,2.80
2019-03-18T04:36:23.622Z,2.80
2019-03-18T04:39:27.081Z,2.90
2019-03-18T04:42:30.541Z,2.90
2019-03-18T04:45:34.005Z,3.00
2019-03-18T04:48:37.454Z,3.00
2019-03-18T04:51:40.905Z,3.00
2019-03-18T04:54:44.333Z,3.00
2019-03-18T04:57:47.795Z,3.00
2019-03-18T05:00:51.254Z,3.00
2019-03-18T05:03:54.684Z,3.00
2019-03-18T05:06:58.161Z,3.00
2019-03-18T05:10:01.600Z,3.00
2019-03-18T05:13:05.060Z,3.00
2019-03-18T05:16:08.495Z,2.90
2019-03-18T05:19:11.979Z,2.80
2019-03-18T05:22:16.774Z,2.80
2019-03-18T05:25:20.281Z,2.80
2019-03-18T05:28:23.738Z,2.70
2019-03-18T05:31:27.268Z,2.70
2019-03-18T05:34:30.718Z,2.70
2019-03-18T05:37:34.181Z,2.70
2019-03-18T05:40:37.639Z,2.70
2019-03-18T05:43:41.071Z,2.60
2019-03-18T05:46:44.559Z,2.70
2019-03-18T05:49:48.029Z,2.70
2019-03-18T05:52:51.481Z,2.60
2019-03-18T05:55:54.917Z,2.70
2019-03-18T05:58:58.366Z,2.70
2019-03-18T06:02:01.799Z,2.70
2019-03-18T06:05:06.494Z,2.70
2019-03-18T06:08:11.651Z,2.60
2019-03-18T06:11:15.108Z,2.70
2019-03-18T06:14:18.735Z,2.70
2019-03-18T06:17:22.167Z,2.70
2019-03-18T06:20:25.625Z,2.60
2019-03-18T06:23:29.069Z,2.70
2019-03-18T06:26:32.521Z,2.60
2019-03-18T06:29:35.981Z,2.70
2019-03-18T06:32:39.429Z,2.70
2019-03-18T06:35:42.867Z,2.80
2019-03-18T06:38:46.336Z,2.80
2019-03-18T06:41:49.794Z,2.90
2019-03-18T06:44:53.246Z,2.80
2019-03-18T06:48:04.926Z,2.80
2019-03-18T06:51:01.897Z,2.80
2019-03-18T06:54:05.326Z,2.80
2019-03-18T06:57:08.793Z,2.80
2019-03-18T07:00:17.899Z,2.80
2019-03-18T07:03:21.361Z,2.80
2019-03-18T07:06:24.817Z,2.80
2019-03-18T07:09:28.278Z,2.90
2019-03-18T07:12:31.729Z,2.90
2019-03-18T07:15:35.191Z,3.00
2019-03-18T07:18:38.642Z,3.10
2019-03-18T07:21:42.147Z,3.10
2019-03-18T07:24:45.578Z,3.00
2019-03-18T07:27:49.063Z,3.10
2019-03-18T07:30:52.519Z,3.10
2019-03-18T07:33:55.961Z,3.10
2019-03-18T07:36:59.486Z,3.20
2019-03-18T07:40:03.517Z,3.20
2019-03-18T07:43:06.961Z,3.20
2019-03-18T07:46:10.426Z,3.20
2019-03-18T07:49:13.885Z,3.10
2019-03-18T07:52:17.346Z,3.20
2019-03-18T07:55:20.814Z,3.20
2019-03-18T07:58:24.277Z,3.20
2019-03-18T08:01:27.709Z,3.30
2019-03-18T08:04:37.145Z,3.30
2019-03-18T08:07:36.327Z,3.30
2019-03-18T08:10:39.782Z,3.30
2019-03-18T08:13:43.228Z,3.40
2019-03-18T08:16:46.679Z,3.60
2019-03-18T08:19:50.137Z,3.70
2019-03-18T08:22:53.573Z,3.90
2019-03-18T08:25:57.034Z,4.10
2019-03-18T08:29:00.489Z,4.30
2019-03-18T08:32:03.970Z,4.30
2019-03-18T08:35:07.435Z,4.50
2019-03-18T08:38:10.868Z,4.60
2019-03-18T08:41:14.359Z,4.60
2019-03-18T08:44:17.815Z,5.10
2019-03-18T08:47:21.274Z,5.60
2019-03-18T08:50:24.730Z,6.20
2019-03-18T08:53:28.167Z,6.20
2019-03-18T08:56:31.617Z,5.70
2019-03-18T08:59:35.078Z,5.40
2019-03-18T09:02:38.562Z,5.20
2019-03-18T09:05:42.010Z,5.10
2019-03-18T09:08:45.463Z,5.00
2019-03-18T09:11:48.946Z,5.00
2019-03-18T09:14:52.412Z,4.90
2019-03-18T09:17:55.850Z,5.00
2019-03-18T09:20:59.318Z,5.00
2019-03-18T09:24:02.761Z,5.20
2019-03-18T09:27:06.226Z,5.50
2019-03-18T09:30:22.681Z,5.50
2019-03-18T09:33:26.138Z,5.70
2019-03-18T09:36:29.602Z,5.70
2019-03-18T09:39:33.071Z,5.70
2019-03-18T09:42:36.510Z,5.80
2019-03-18T09:45:39.974Z,5.80
2019-03-18T09:48:43.433Z,5.50
2019-03-18T09:51:46.894Z,5.40
2019-03-18T09:54:50.321Z,5.40
2019-03-18T09:57:53.782Z,5.40
2019-03-18T10:00:57.250Z,5.40
2019-03-18T10:04:00.746Z,5.50
2019-03-18T10:07:04.179Z,5.60
2019-03-18T10:10:09.882Z,5.70
2019-03-18T10:13:13.338Z,5.80
2019-03-18T10:16:16.810Z,6.00
2019-03-18T10:19:20.294Z,6.10
2019-03-18T10:22:23.760Z,6.10
2019-03-18T10:25:27.223Z,6.00
2019-03-18T10:28:30.666Z,5.70
2019-03-18T10:31:34.126Z,5.70
2019-03-18T10:34:37.570Z,5.80
2019-03-18T10:37:41.090Z,5.80
2019-03-18T10:40:44.530Z,5.70
2019-03-18T10:43:47.988Z,5.80
2019-03-18T10:46:51.414Z,5.90
2019-03-18T10:49:54.886Z,6.30
2019-03-18T10:52:58.373Z,6.40
2019-03-18T10:56:07.838Z,6.30
2019-03-18T10:59:07.090Z,6.20
2019-03-18T11:02:10.541Z,6.20
2019-03-18T11:05:14.743Z,6.20
2019-03-18T11:08:18.257Z,6.20
2019-03-18T11:11:21.709Z,6.20
2019-03-18T11:14:25.174Z,6.10
2019-03-18T11:17:28.601Z,5.90
2019-03-18T11:20:32.066Z,5.90
2019-03-18T11:23:35.518Z,5.90
2019-03-18T11:26:38.983Z,6.20
2019-03-18T11:29:42.430Z,6.50
2019-03-18T11:32:45.964Z,6.70
2019-03-18T11:35:50.562Z,6.80
2019-03-18T11:38:54.037Z,7.10
2019-03-18T11:41:57.501Z,7.20
2019-03-18T11:45:01.002Z,7.10
2019-03-18T11:48:04.577Z,7.10
2019-03-18T11:51:08.033Z,7.00
2019-03-18T11:54:11.529Z,7.10
2019-03-18T11:57:15.019Z,6.90
2019-03-18T12:00:19.922Z,6.50
2019-03-18T12:03:23.370Z,6.20
2019-03-18T12:06:32.833Z,5.90
2019-03-18T12:09:36.271Z,5.80
2019-03-18T12:12:52.698Z,5.80
2019-03-18T12:15:56.182Z,5.80
2019-03-18T12:18:59.649Z,5.80
2019-03-18T12:22:03.105Z,5.80
2019-03-18T12:25:08.492Z,5.80
2019-03-18T12:28:12.229Z,6.10
2019-03-18T12:31:15.725Z,6.30
2019-03-18T12:34:19.169Z,6.50
2019-03-18T12:37:22.645Z,6.80
2019-03-18T12:40:26.245Z,7.00
2019-03-18T12:43:29.721Z,7.10
2019-03-18T12:46:33.183Z,7.00
2019-03-18T12:49:36.635Z,6.90
2019-03-18T12:52:40.198Z,6.90
2019-03-18T12:55:43.637Z,6.90
2019-03-18T12:58:47.116Z,7.10
2019-03-18T13:01:50.561Z,7.20
2019-03-18T13:04:54.026Z,7.30
2019-03-18T13:07:57.514Z,7.40
2019-03-18T13:11:00.972Z,7.40
2019-03-18T13:14:04.477Z,7.40
2019-03-18T13:17:07.909Z,7.40
2019-03-18T13:20:17.238Z,7.30
2019-03-18T13:23:20.820Z,7.20
2019-03-18T13:26:24.318Z,7.10
2019-03-18T13:29:27.797Z,7.20
2019-03-18T13:32:31.252Z,7.10
2019-03-18T13:35:34.703Z,7.00
2019-03-18T13:38:38.170Z,7.00
2019-03-18T13:41:41.616Z,6.90
2019-03-18T13:44:45.097Z,7.00
2019-03-18T13:47:49.522Z,7.10
2019-03-18T13:50:53.011Z,7.20
2019-03-18T13:53:56.430Z,7.30
2019-03-18T13:56:59.949Z,7.10
2019-03-18T14:00:05.388Z,7.00
2019-03-18T14:03:08.855Z,6.90
2019-03-18T14:06:12.357Z,6.80
2019-03-18T14:09:15.821Z,6.70
2019-03-18T14:12:19.250Z,6.70
2019-03-18T14:15:25.625Z,6.80
2019-03-18T14:18:29.086Z,6.80
2019-03-18T14:21:33.661Z,6.90
2019-03-18T14:24:37.342Z,7.10
2019-03-18T14:27:40.879Z,7.20
2019-03-18T14:30:44.333Z,7.20
2019-03-18T14:33:47.821Z,7.00
2019-03-18T14:36:51.269Z,6.90
2019-03-18T14:39:54.717Z,6.90
2019-03-18T14:42:58.182Z,6.80
2019-03-18T14:46:01.614Z,6.80
2019-03-18T14:49:05.092Z,6.60
2019-03-18T14:52:08.545Z,6.60
2019-03-18T14:55:13.851Z,6.60
2019-03-18T14:58:17.396Z,6.60
2019-03-18T15:01:20.847Z,6.70
2019-03-18T15:04:24.365Z,6.90
2019-03-18T15:07:27.833Z,7.10
2019-03-18T15:10:31.293Z,7.10
2019-03-18T15:13:34.750Z,7.20
2019-03-18T15:16:38.233Z,7.20
2019-03-18T15:19:41.673Z,7.30
2019-03-18T15:22:45.206Z,7.30
2019-03-18T15:25:48.660Z,7.30
2019-03-18T15:28:52.094Z,7.20
2019-03-18T15:31:55.546Z,7.20
2019-03-18T15:34:59.006Z,7.20
2019-03-18T15:38:02.476Z,7.30
2019-03-18T15:41:05.955Z,7.30
2019-03-18T15:44:09.382Z,7.20
2019-03-18T15:47:12.841Z,7.10
2019-03-18T15:50:27.647Z,7.00
2019-03-18T15:53:31.105Z,7.00
2019-03-18T15:56:34.584Z,6.90
2019-03-18T15:59:38.038Z,6.90
2019-03-18T16:02:41.555Z,6.90
2019-03-18T16:05:45.090Z,6.70
2019-03-18T16:08:48.539Z,6.70
2019-03-18T16:11:51.979Z,6.60
2019-03-18T16:14:55.441Z,6.50
2019-03-18T16:17:58.893Z,6.50
2019-03-18T16:21:02.338Z,6.50
2019-03-18T16:24:05.891Z,6.50
2019-03-18T16:27:09.326Z,6.40
2019-03-18T16:30:21.172Z,6.50
2019-03-18T16:33:24.599Z,6.40
2019-03-18T16:36:28.058Z,6.20
2019-03-18T16:39:31.545Z,6.00
2019-03-18T16:42:35.019Z,5.90
2019-03-18T16:45:38.470Z,5.90
2019-03-18T16:48:41.906Z,5.90
2019-03-18T16:51:45.365Z,5.90
2019-03-18T16:54:50.353Z,5.90
2019-03-18T16:57:53.839Z,6.00
2019-03-18T17:00:57.335Z,6.00
2019-03-18T17:04:00.797Z,5.90
2019-03-18T17:07:04.269Z,5.80
2019-03-18T17:10:15.689Z,5.60
2019-03-18T17:13:19.143Z,5.40
2019-03-18T17:16:22.599Z,5.30
2019-03-18T17:19:26.077Z,5.20
2019-03-18T17:22:29.518Z,5.10
2019-03-18T17:25:34.110Z,5.00
2019-03-18T17:28:37.567Z,4.90
2019-03-18T17:31:40.998Z,4.80
2019-03-18T17:34:44.458Z,4.70
2019-03-18T17:37:47.900Z,4.60
2019-03-18T17:40:51.365Z,4.60
2019-03-18T17:43:54.796Z,4.50
2019-03-18T17:46:58.273Z,4.40
2019-03-18T17:50:01.727Z,4.30
2019-03-18T17:53:05.246Z,4.20
2019-03-18T17:56:08.710Z,4.20
2019-03-18T17:59:12.249Z,4.30
2019-03-18T18:02:15.706Z,4.20
2019-03-18T18:05:19.197Z,4.10
2019-03-18T18:08:22.658Z,4.00
2019-03-18T18:11:26.098Z,3.90
2019-03-18T18:14:29.581Z,3.90
2019-03-18T18:17:33.018Z,3.80
2019-03-18T18:20:37.720Z,3.80
2019-03-18T18:23:41.487Z,3.80
2019-03-18T18:26:45.020Z,3.80
2019-03-18T18:29:48.477Z,3.80
2019-03-18T18:32:51.939Z,3.80
2019-03-18T18:35:55.394Z,3.90
2019-03-18T18:38:58.859Z,3.90
2019-03-18T18:42:02.342Z,3.90
2019-03-18T18:45:07.634Z,4.00
2019-03-18T18:48:11.104Z,4.10
2019-03-18T18:51:14.560Z,4.10
2019-03-18T18:54:18.026Z,4.20
2019-03-18T18:57:21.490Z,4.20
2019-03-18T19:00:25.029Z,4.30
2019-03-18T19:03:28.489Z,4.40
2019-03-18T19:06:32.029Z,4.40
2019-03-18T19:09:35.486Z,4.40
2019-03-18T19:12:38.942Z,4.40
2019-03-18T19:15:43.326Z,4.40
2019-03-18T19:18:46.813Z,4.30
2019-03-18T19:21:50.261Z,4.30
2019-03-18T19:24:53.746Z,4.20
2019-03-18T19:27:57.195Z,4.10
2019-03-18T19:31:00.649Z,4.10
2019-03-18T19:34:04.106Z,4.00
2019-03-18T19:37:07.539Z,4.00
2019-03-18T19:40:21.392Z,3.90
2019-03-18T19:43:24.846Z,3.90
2019-03-18T19:46:28.346Z,3.90
2019-03-18T19:49:33.743Z,3.90
2019-03-18T19:52:37.242Z,4.00
2019-03-18T19:55:40.729Z,4.00
2019-03-18T19:58:44.205Z,4.00
2019-03-18T20:01:47.654Z,3.90
2019-03-18T20:04:51.105Z,3.80
2019-03-18T20:07:54.594Z,3.70
2019-03-18T20:10:58.032Z,3.60
2019-03-18T20:14:01.501Z,3.50
2019-03-18T20:17:04.970Z,3.40
2019-03-18T20:20:11.433Z,3.40
2019-03-18T20:23:14.869Z,3.30
2019-03-18T20:26:18.326Z,3.30
2019-03-18T20:29:21.759Z,3.30
2019-03-18T20:32:25.218Z,3.20
2019-03-18T20:35:28.687Z,3.20
2019-03-18T20:38:32.144Z,3.10
2019-03-18T20:41:35.611Z,3.10
2019-03-18T20:44:39.041Z,3.10
2019-03-18T20:47:42.510Z,3.00
2019-03-18T20:50:45.979Z,3.00
2019-03-18T20:53:49.537Z,3.00
2019-03-18T20:56:52.973Z,3.10
2019-03-18T20:59:56.445Z,3.00
2019-03-18T21:02:59.877Z,3.00
2019-03-18T21:06:09.388Z,2.90
2019-03-18T21:09:12.855Z,2.90
2019-03-18T21:12:16.318Z,2.80
2019-03-18T21:15:19.774Z,2.80
2019-03-18T21:18:23.289Z,2.80
2019-03-18T21:21:26.740Z,2.80
2019-03-18T21:24:30.225Z,2.70
2019-03-18T21:27:33.674Z,2.70
2019-03-18T21:30:37.138Z,2.60
2019-03-18T21:33:40.602Z,2.60
2019-03-18T21:36:44.041Z,2.60
2019-03-18T21:39:47.503Z,2.60
2019-03-18T21:42:50.975Z,2.60
2019-03-18T21:45:54.475Z,2.60
2019-03-18T21:48:57.929Z,2.60
2019-03-18T21:52:01.366Z,2.50
2019-03-18T21:55:05.757Z,2.50
2019-03-18T21:58:09.196Z,2.40
2019-03-18T22:01:12.659Z,2.40
2019-03-18T22:04:16.186Z,2.30
2019-03-18T22:07:19.707Z,2.30
2019-03-18T22:10:23.158Z,2.20
2019-03-18T22:13:26.616Z,2.20
2019-03-18T22:16:30.071Z,2.20
2019-03-18T22:19:33.530Z,2.30
2019-03-18T22:22:36.982Z,2.20
2019-03-18T22:25:40.463Z,2.20
2019-03-18T22:28:43.905Z,2.10
2019-03-18T22:31:47.365Z,2.00
2019-03-18T22:34:50.830Z,2.00
2019-03-18T22:37:54.296Z,2.00
2019-03-18T22:40:57.749Z,2.00
2019-03-18T22:44:01.217Z,2.10
2019-03-18T22:47:04.695Z,2.10
2019-03-18T22:50:10.710Z,2.00
2019-03-18T22:53:14.218Z,2.00
2019-03-18T22:56:17.654Z,2.00
2019-03-18T22:59:21.133Z,2.00
2019-03-18T23:02:24.581Z,2.10
2019-03-18T23:05:28.094Z,2.10
2019-03-18T23:08:31.582Z,2.20
2019-03-18T23:11:35.046Z,2.30
2019-03-18T23:14:38.498Z,2.30
2019-03-18T23:17:42.238Z,2.40
2019-03-18T23:20:45.725Z,2.40
2019-03-18T23:23:49.170Z,2.30
2019-03-18T23:26:52.641Z,2.30
2019-03-18T23:29:56.103Z,2.30
2019-03-18T23:32:59.561Z,2.10
2019-03-18T23:36:03.066Z,2.10
2019-03-18T23:39:08.102Z,2.10
2019-03-18T23:42:11.541Z,2.10
2019-03-18T23:45:14.998Z,2.20
2019-03-18T23:48:18.438Z,2.20
2019-03-18T23:51:21.900Z,2.30
2019-03-18T23:54:25.361Z,2.30
2019-03-18T23:57:28.793Z,2.40
